Aérodrome :







RETROUVEZ-NOUS SUR...

 
LOGIN :

S'inscrire | Disclaimer

   EN    FR    IT 

 









Légende :    VFR   VFR Marginal   IFR   IFR Intensif   IFR Très Intensif
Visi : 
Plafond : 
>= 8 km
>= 3000ft
5 à 8 km
1000 à 3000 ft
1500m à 5 km
500 à 1000 ft
800 à 1500m
200 à 500 ft
< 800m
< 200 ft
Symboles :   Orages  Brouillard  Fortes neiges  Fortes précipitations  Vent > 20 kt







- Altitude de l'aérodrome : 68 ft
- Code IATA : YFC


CYFC - Fredericton

DERNIER METAR :
  • 191200Z AUTO 21003KT 9SM SCT002 03/03 A3034 RMK SLP275

METARs EXPIRÉS :
  • 191154Z AUTO 20003KT 9SM SCT002 03/03 A3034 RMK SLP276
  • 191123Z AUTO 20003KT 9SM BKN002 01/01 A3033 RMK SLP272
  • 191100Z AUTO 21002KT 9SM FEW002 M00/M00 A3032 RMK SLP269
  • 191029Z AUTO VRB02KT 6SM BR SCT002 M01/M01 A3030 RMK SLP264
  • 191016Z AUTO 22004KT 4SM BR OVC002 M00/M00 A3030 RMK SLP264
  • 191014Z AUTO 22004KT 7SM OVC002 M00/M00 A3030 RMK SLP264

TAF TAF CYFC
Valide du 19 à 12h jusqu'au 20 à 00h UTC


191138Z 1912/1924 21005KT P6SM FEW002
TEMPO 1912/1914 4SM BR BKN002
FM191800 27005KT P6SM FEW030 RMK FCST BASED ON AUTO OBS. NXT FCST BY 191800Z
Pas de NOTAMs connus pour ce terrain.



MET'MAP, la Météo Aéronautique d'un coup d'oeil ! - Copyright ORBIFLY Décembre 2007 - Disclaimer

ORBIFLY MET'MAP TEAM :

Programmation & Développement : Alexandra Zaïnal
Conception & Développement : Baudouin d'Aumeries
Co-Programmation & Développement : Marc-Olivier Méhu
Soutien technique & logistique : Manuel Goepfert

Contact : metmap@orbifly.com




SOURCES & CREDITS :

   NOAA